METAR Data
IDs: Format: Raw Decoded Include TAF

Data at: 1239 UTC 23 Sep 2018

KGJT 231153Z 09011KT 10SM FEW120 14/M03 A3008 RMK AO2 SLP121 T01441033 10206 20144 53002 $
KGJT 231053Z AUTO 10010KT 10SM FEW120 16/M03 A3007 RMK AO2 SLP115 T01561033 $
KGJT 230953Z AUTO 09006KT 10SM CLR 14/M03 A3007 RMK AO2 SLP117 T01441033 $
KGJT 230853Z AUTO 10009KT 10SM CLR 16/M03 A3007 RMK AO2 SLP117 T01611028 56003 $
KGJT 230753Z AUTO 12007KT 10SM CLR 16/M02 A3007 RMK AO2 SLP118 T01611022 $
KGJT 230653Z AUTO 13012KT 10SM CLR 18/M04 A3008 RMK AO2 SLP119 T01831039 405391111 $
KGJT 230553Z AUTO 10011KT 10SM CLR 17/M03 A3008 RMK AO2 SLP126 T01721028 10283 20167 53004 $
KGJT 230453Z AUTO 11010KT 10SM CLR 19/M03 A3007 RMK AO2 SLP124 T01891028 $
KGJT 230353Z AUTO 08006KT 10SM CLR 18/M06 A3007 RMK AO2 SLP130 T01781056
KGJT 230253Z 00000KT 10SM CLR 20/M04 A3007 RMK AO2 SLP128 T02001044 55000
KGJT 230153Z 02005KT 10SM CLR 22/M05 A3006 RMK AO2 SLPNO T02221050
KGJT 230053Z 33008KT 10SM CLR 27/M03 A3006 RMK AO2 SLP124 T02671033
KGJT 222353Z 31011KT 10SM CLR 28/M02 A3007 RMK AO2 SLP123 T02831022 10300 20233 56020
KGJT 222253Z 30012KT 10SM CLR 29/M03 A3008 RMK AO2 SLP126 T02941028
KGJT 222153Z 29005G14KT 10SM CLR 29/M03 A3011 RMK AO2 SLP130 T02941033
KGJT 222053Z 31009KT 10SM CLR 28/M02 A3014 RMK AO2 SLP140 T02831022 58027
KGJT 221953Z 31010KT 10SM CLR 28/M03 A3017 RMK AO2 SLP152 T02781028
KGJT 221853Z 27005KT 10SM CLR 26/M01 A3020 RMK AO2 SLP168 T02611011
KGJT 221753Z 00000KT 10SM CLR 23/M04 A3023 RMK AO2 SLP178 T02331039 58009
KGJT 221653Z 13008KT 10SM CLR 21/ A3026 RMK AO2 SLP191 T0211
KGJT 221553Z 12008KT 10SM CLR 19/ A3026 RMK AO2 SLP198 T0189 $
KGJT 221453Z 12008KT 10SM CLR 16/ A3026 RMK AO2 SLP194 T0161 52013 $
KGJT 221353Z 12008KT 10SM CLR A3024 RMK AO2 SLPNO $
KGJT 221253Z 09010KT 10SM CLR 11/M08 A3023 RMK AO2 SLP184 T01061078 $
KGJT 221153Z 09006KT 10SM CLR 11/M08 A3022 RMK AO2 SLP176 T01111078 10172 20111 51005 $
KGJT 221053Z AUTO 12011KT 10SM 12/M07 A3021 RMK AO2 SLP172 T01171072 $
KGJT 220953Z AUTO 16006KT 10SM CLR 13/M07 A3020 RMK AO2 SLP169 T01331067
KGJT 220853Z AUTO 09012KT 10SM CLR 16/M07 A3020 RMK AO2 SLP161 T01561067 50001
KGJT 220753Z AUTO 10013KT 10SM CLR 16/M07 A3020 RMK AO2 SLP165 T01611067
KGJT 220653Z AUTO 11011KT 10SM CLR 14/M07 A3020 RMK AO2 SLP169 T01441072 402830089
KGJT 220553Z AUTO 09006KT 10SM CLR 17/M08 A3019 RMK AO2 SLP166 T01671083 10278 20150 51007
KGJT 220453Z AUTO 10005KT 10SM CLR 16/M09 A3019 RMK AO2 SLP170 T01611089
KGJT 220353Z AUTO 05003KT 10SM CLR 15/M09 A3018 RMK AO2 SLP173 T01501094
KGJT 220253Z 05003KT 10SM CLR 20/M09 A3017 RMK AO2 SLP165 T02001089 53013
KGJT 220153Z 34009KT 10SM CLR 23/M09 A3014 RMK AO2 SLP156 T02281089
KGJT 220053Z 35006KT 10SM CLR 26/M08 A3013 RMK AO2 SLP150 T02611083